sensor_id;sensor_type;location;lat;lon;timestamp;pressure;altitude;pressure_sealevel;temperature;humidity
44001;BME280;29660;42.892;24.710;2024-02-16T00:04:34;97673.22;;;5.46;100.00
44001;BME280;29660;42.892;24.710;2024-02-16T00:09:56;97561.47;;;4.64;100.00
44001;BME280;29660;42.892;24.710;2024-02-16T00:15:18;97676.69;;;5.34;100.00
44001;BME280;29660;42.892;24.710;2024-02-16T00:20:40;97677.53;;;5.35;100.00
44001;BME280;29660;42.892;24.710;2024-02-16T00:26:03;97674.56;;;5.31;100.00
44001;BME280;29660;42.892;24.710;2024-02-16T00:31:29;97455.78;;;3.96;100.00
44001;BME280;29660;42.892;24.710;2024-02-16T00:36:53;97656.09;;;5.20;100.00
44001;BME280;29660;42.892;24.710;2024-02-16T00:42:15;97541.91;;;4.37;100.00
44001;BME280;29660;42.892;24.710;2024-02-16T00:47:37;97685.16;;;5.20;100.00
44001;BME280;29660;42.892;24.710;2024-02-16T00:53:01;97668.53;;;5.07;100.00
44001;BME280;29660;42.892;24.710;2024-02-16T00:58:23;97685.38;;;5.18;100.00
44001;BME280;29660;42.892;24.710;2024-02-16T01:03:45;97685.16;;;5.20;100.00
44001;BME280;29660;42.892;24.710;2024-02-16T01:09:07;97673.56;;;5.21;100.00
44001;BME280;29660;42.892;24.710;2024-02-16T01:14:30;97670.53;;;5.29;100.00
44001;BME280;29660;42.892;24.710;2024-02-16T01:19:52;97678.75;;;5.44;100.00
44001;BME280;29660;42.892;24.710;2024-02-16T01:25:14;97666.41;;;5.50;100.00
44001;BME280;29660;42.892;24.710;2024-02-16T01:30:38;97582.97;;;4.56;100.00
44001;BME280;29660;42.892;24.710;2024-02-16T01:36:00;97650.13;;;5.12;100.00
44001;BME280;29660;42.892;24.710;2024-02-16T01:41:22;97484.06;;;4.24;100.00
44001;BME280;29660;42.892;24.710;2024-02-16T01:46:44;97665.28;;;5.46;100.00
44001;BME280;29660;42.892;24.710;2024-02-16T01:52:07;97652.09;;;5.34;100.00
44001;BME280;29660;42.892;24.710;2024-02-16T01:57:30;97668.22;;;5.32;100.00
44001;BME280;29660;42.892;24.710;2024-02-16T02:02:53;97533.94;;;4.49;100.00
44001;BME280;29660;42.892;24.710;2024-02-16T02:08:15;97663.81;;;5.38;100.00
44001;BME280;29660;42.892;24.710;2024-02-16T02:13:37;97483.84;;;4.25;100.00
44001;BME280;29660;42.892;24.710;2024-02-16T02:18:59;97664.25;;;5.47;100.00
44001;BME280;29660;42.892;24.710;2024-02-16T02:24:22;97658.63;;;5.43;100.00
44001;BME280;29660;42.892;24.710;2024-02-16T02:29:44;97657.13;;;5.47;100.00
44001;BME280;29660;42.892;24.710;2024-02-16T02:35:08;97593.38;;;5.03;100.00
44001;BME280;29660;42.892;24.710;2024-02-16T02:40:30;97656.50;;;5.28;100.00
44001;BME280;29660;42.892;24.710;2024-02-16T02:45:52;97663.44;;;5.46;100.00
44001;BME280;29660;42.892;24.710;2024-02-16T02:51:14;97664.94;;;5.42;100.00
44001;BME280;29660;42.892;24.710;2024-02-16T02:56:36;97583.69;;;4.80;100.00
44001;BME280;29660;42.892;24.710;2024-02-16T03:01:59;97673.06;;;5.52;100.00
44001;BME280;29660;42.892;24.710;2024-02-16T03:07:21;97536.06;;;4.63;100.00
44001;BME280;29660;42.892;24.710;2024-02-16T03:12:43;97684.00;;;5.56;100.00
44001;BME280;29660;42.892;24.710;2024-02-16T03:18:06;97683.28;;;5.60;100.00
44001;BME280;29660;42.892;24.710;2024-02-16T03:23:31;97679.56;;;5.61;100.00
44001;BME280;29660;42.892;24.710;2024-02-16T03:28:53;97694.53;;;5.68;100.00
44001;BME280;29660;42.892;24.710;2024-02-16T03:34:15;97697.09;;;5.62;100.00
44001;BME280;29660;42.892;24.710;2024-02-16T03:39:37;97320.94;;;3.40;100.00
44001;BME280;29660;42.892;24.710;2024-02-16T03:45:00;97694.13;;;5.76;100.00
44001;BME280;29660;42.892;24.710;2024-02-16T03:50:22;97686.28;;;5.81;100.00
44001;BME280;29660;42.892;24.710;2024-02-16T03:55:46;97687.97;;;5.87;100.00
44001;BME280;29660;42.892;24.710;2024-02-16T04:01:08;97532.41;;;4.93;100.00
44001;BME280;29660;42.892;24.710;2024-02-16T04:06:31;97666.63;;;5.77;100.00
44001;BME280;29660;42.892;24.710;2024-02-16T04:11:53;97618.47;;;5.17;100.00
44001;BME280;29660;42.892;24.710;2024-02-16T04:17:15;97561.97;;;4.78;100.00
44001;BME280;29660;42.892;24.710;2024-02-16T04:22:38;97699.00;;;5.67;100.00
44001;BME280;29660;42.892;24.710;2024-02-16T04:28:00;97700.75;;;5.61;100.00
44001;BME280;29660;42.892;24.710;2024-02-16T04:33:22;97677.75;;;5.62;100.00
44001;BME280;29660;42.892;24.710;2024-02-16T04:38:44;97691.47;;;5.76;100.00
44001;BME280;29660;42.892;24.710;2024-02-16T04:44:07;97675.38;;;5.49;100.00
44001;BME280;29660;42.892;24.710;2024-02-16T04:49:29;97698.16;;;5.50;100.00
44001;BME280;29660;42.892;24.710;2024-02-16T04:54:51;97645.72;;;5.18;100.00
44001;BME280;29660;42.892;24.710;2024-02-16T05:00:14;97700.13;;;5.54;100.00
44001;BME280;29660;42.892;24.710;2024-02-16T05:05:36;97708.06;;;5.54;100.00
44001;BME280;29660;42.892;24.710;2024-02-16T05:11:00;97523.41;;;4.37;100.00
44001;BME280;29660;42.892;24.710;2024-02-16T05:16:22;97700.28;;;5.64;100.00
44001;BME280;29660;42.892;24.710;2024-02-16T05:21:45;97710.19;;;5.57;100.00
44001;BME280;29660;42.892;24.710;2024-02-16T05:27:07;97574.25;;;4.84;100.00
44001;BME280;29660;42.892;24.710;2024-02-16T05:32:29;97706.66;;;5.80;100.00
44001;BME280;29660;42.892;24.710;2024-02-16T05:37:51;97707.63;;;5.91;100.00
44001;BME280;29660;42.892;24.710;2024-02-16T05:43:14;97470.97;;;4.29;100.00
44001;BME280;29660;42.892;24.710;2024-02-16T05:48:37;97720.47;;;5.82;100.00
44001;BME280;29660;42.892;24.710;2024-02-16T05:54:02;97670.22;;;5.42;100.00
44001;BME280;29660;42.892;24.710;2024-02-16T05:59:25;97742.41;;;5.66;100.00
44001;BME280;29660;42.892;24.710;2024-02-16T06:04:48;97756.13;;;5.80;100.00
44001;BME280;29660;42.892;24.710;2024-02-16T06:10:11;97642.41;;;5.23;100.00
44001;BME280;29660;42.892;24.710;2024-02-16T06:15:34;97605.34;;;4.94;100.00
44001;BME280;29660;42.892;24.710;2024-02-16T06:20:56;97762.66;;;5.89;100.00
44001;BME280;29660;42.892;24.710;2024-02-16T06:26:18;97771.31;;;5.84;100.00
44001;BME280;29660;42.892;24.710;2024-02-16T06:31:42;97764.72;;;5.99;100.00
44001;BME280;29660;42.892;24.710;2024-02-16T06:37:04;97757.19;;;6.07;100.00
44001;BME280;29660;42.892;24.710;2024-02-16T06:42:27;97760.00;;;6.18;100.00
44001;BME280;29660;42.892;24.710;2024-02-16T06:47:49;97762.16;;;6.21;100.00
44001;BME280;29660;42.892;24.710;2024-02-16T06:53:11;97770.69;;;6.23;100.00
44001;BME280;29660;42.892;24.710;2024-02-16T06:58:33;97770.88;;;6.33;100.00
44001;BME280;29660;42.892;24.710;2024-02-16T07:03:58;97589.63;;;5.45;100.00
44001;BME280;29660;42.892;24.710;2024-02-16T07:09:20;97761.84;;;6.68;100.00
44001;BME280;29660;42.892;24.710;2024-02-16T07:14:44;97752.69;;;6.75;100.00
44001;BME280;29660;42.892;24.710;2024-02-16T07:20:09;97684.47;;;6.32;100.00
44001;BME280;29660;42.892;24.710;2024-02-16T07:25:31;97650.28;;;6.30;100.00
44001;BME280;29660;42.892;24.710;2024-02-16T07:30:53;97775.13;;;7.06;100.00
44001;BME280;29660;42.892;24.710;2024-02-16T07:36:16;97762.44;;;7.30;100.00
44001;BME280;29660;42.892;24.710;2024-02-16T07:41:40;97763.56;;;7.12;100.00
44001;BME280;29660;42.892;24.710;2024-02-16T07:47:03;97708.75;;;7.01;100.00
44001;BME280;29660;42.892;24.710;2024-02-16T07:52:25;97705.88;;;7.25;100.00
44001;BME280;29660;42.892;24.710;2024-02-16T07:57:47;97750.41;;;7.67;100.00
44001;BME280;29660;42.892;24.710;2024-02-16T08:03:09;97753.28;;;7.87;100.00
44001;BME280;29660;42.892;24.710;2024-02-16T08:08:31;97767.00;;;8.06;100.00
44001;BME280;29660;42.892;24.710;2024-02-16T08:13:53;97761.56;;;8.23;100.00
44001;BME280;29660;42.892;24.710;2024-02-16T08:19:17;97762.28;;;8.40;97.21
44001;BME280;29660;42.892;24.710;2024-02-16T08:24:39;97647.75;;;7.77;93.86
44001;BME280;29660;42.892;24.710;2024-02-16T08:30:01;97776.16;;;8.47;91.15
44001;BME280;29660;42.892;24.710;2024-02-16T08:35:25;97769.94;;;8.69;86.70
44001;BME280;29660;42.892;24.710;2024-02-16T08:40:47;97556.66;;;7.40;83.68
44001;BME280;29660;42.892;24.710;2024-02-16T08:46:10;97760.84;;;9.02;83.46
44001;BME280;29660;42.892;24.710;2024-02-16T08:52:00;97762.81;;;9.22;85.68
44001;BME280;29660;42.892;24.710;2024-02-16T08:57:23;97763.94;;;9.36;81.88
44001;BME280;29660;42.892;24.710;2024-02-16T09:02:46;97762.44;;;9.55;81.00
44001;BME280;29660;42.892;24.710;2024-02-16T09:08:10;97764.81;;;9.52;79.74
44001;BME280;29660;42.892;24.710;2024-02-16T09:13:36;97767.25;;;9.74;77.96
44001;BME280;29660;42.892;24.710;2024-02-16T09:19:02;97763.03;;;9.83;76.48
44001;BME280;29660;42.892;24.710;2024-02-16T09:24:24;97769.97;;;9.84;73.49
44001;BME280;29660;42.892;24.710;2024-02-16T09:29:51;97616.91;;;9.03;74.22
44001;BME280;29660;42.892;24.710;2024-02-16T09:35:14;97678.81;;;9.56;76.27
44001;BME280;29660;42.892;24.710;2024-02-16T09:40:36;97758.31;;;10.21;72.50
44001;BME280;29660;42.892;24.710;2024-02-16T09:45:59;97671.94;;;9.76;69.32
44001;BME280;29660;42.892;24.710;2024-02-16T09:51:25;97098.19;;;6.16;70.64
44001;BME280;29660;42.892;24.710;2024-02-16T09:56:47;97766.63;;;10.50;65.66
44001;BME280;29660;42.892;24.710;2024-02-16T10:02:09;97635.69;;;9.65;60.21
44001;BME280;29660;42.892;24.710;2024-02-16T10:07:31;97767.69;;;10.54;64.39
44001;BME280;29660;42.892;24.710;2024-02-16T10:13:04;97756.22;;;10.59;61.60
44001;BME280;29660;42.892;24.710;2024-02-16T10:18:27;97749.00;;;10.69;62.79
44001;BME280;29660;42.892;24.710;2024-02-16T10:24:09;97747.69;;;10.62;60.49
44001;BME280;29660;42.892;24.710;2024-02-16T10:29:32;97734.38;;;10.26;59.09
44001;BME280;29660;42.892;24.710;2024-02-16T10:34:56;97726.91;;;10.38;60.43
44001;BME280;29660;42.892;24.710;2024-02-16T10:40:20;97729.53;;;10.33;57.76
44001;BME280;29660;42.892;24.710;2024-02-16T10:45:43;97604.25;;;9.72;60.05
44001;BME280;29660;42.892;24.710;2024-02-16T10:51:07;97718.31;;;10.72;58.95
44001;BME280;29660;42.892;24.710;2024-02-16T10:56:35;97717.78;;;10.75;58.62
44001;BME280;29660;42.892;24.710;2024-02-16T11:02:00;97595.22;;;9.98;57.74
44001;BME280;29660;42.892;24.710;2024-02-16T11:07:24;97575.25;;;9.75;56.01
44001;BME280;29660;42.892;24.710;2024-02-16T11:12:47;97688.47;;;10.54;56.68
44001;BME280;29660;42.892;24.710;2024-02-16T11:18:10;97672.75;;;10.32;56.84
44001;BME280;29660;42.892;24.710;2024-02-16T11:23:35;97706.59;;;10.73;55.47
44001;BME280;29660;42.892;24.710;2024-02-16T11:28:58;97697.56;;;10.53;55.26
44001;BME280;29660;42.892;24.710;2024-02-16T11:34:24;97676.47;;;10.06;55.54
44001;BME280;29660;42.892;24.710;2024-02-16T11:39:55;97663.94;;;10.17;56.71
44001;BME280;29660;42.892;24.710;2024-02-16T11:45:17;97694.63;;;10.35;57.11
44001;BME280;29660;42.892;24.710;2024-02-16T11:50:40;97676.22;;;10.43;56.66
44001;BME280;29660;42.892;24.710;2024-02-16T11:56:02;97583.75;;;9.72;58.20
44001;BME280;29660;42.892;24.710;2024-02-16T12:01:24;97691.66;;;10.41;57.92
44001;BME280;29660;42.892;24.710;2024-02-16T12:06:47;97686.84;;;10.18;58.81
44001;BME280;29660;42.892;24.710;2024-02-16T12:12:09;97592.53;;;9.73;59.20
44001;BME280;29660;42.892;24.710;2024-02-16T12:17:32;97687.97;;;10.27;57.89
44001;BME280;29660;42.892;24.710;2024-02-16T12:22:54;97665.78;;;10.06;56.67
44001;BME280;29660;42.892;24.710;2024-02-16T12:28:16;97691.41;;;10.32;57.10
44001;BME280;29660;42.892;24.710;2024-02-16T12:33:38;97688.22;;;10.51;55.99
44001;BME280;29660;42.892;24.710;2024-02-16T12:39:02;97676.19;;;10.48;53.25
44001;BME280;29660;42.892;24.710;2024-02-16T12:44:25;97681.03;;;10.36;53.10
44001;BME280;29660;42.892;24.710;2024-02-16T12:49:47;97689.03;;;10.36;53.16
44001;BME280;29660;42.892;24.710;2024-02-16T12:55:09;97682.38;;;10.34;53.06
44001;BME280;29660;42.892;24.710;2024-02-16T13:00:32;97675.66;;;10.51;52.19
44001;BME280;29660;42.892;24.710;2024-02-16T13:05:54;97642.66;;;10.27;52.42
44001;BME280;29660;42.892;24.710;2024-02-16T13:11:16;97555.25;;;9.52;53.00
44001;BME280;29660;42.892;24.710;2024-02-16T13:16:38;97564.28;;;9.67;51.27
44001;BME280;29660;42.892;24.710;2024-02-16T13:22:00;97673.00;;;10.21;50.87
44001;BME280;29660;42.892;24.710;2024-02-16T13:27:23;97667.69;;;10.31;49.85
44001;BME280;29660;42.892;24.710;2024-02-16T13:32:45;97662.59;;;10.24;49.73
44001;BME280;29660;42.892;24.710;2024-02-16T13:38:08;97674.63;;;10.42;50.32
44001;BME280;29660;42.892;24.710;2024-02-16T13:43:30;97637.28;;;10.42;49.54
44001;BME280;29660;42.892;24.710;2024-02-16T13:48:53;97658.88;;;10.20;49.55
44001;BME280;29660;42.892;24.710;2024-02-16T13:54:15;97659.94;;;10.04;50.58
44001;BME280;29660;42.892;24.710;2024-02-16T13:59:37;97655.94;;;10.17;50.23
44001;BME280;29660;42.892;24.710;2024-02-16T14:04:59;97550.97;;;9.31;49.96
44001;BME280;29660;42.892;24.710;2024-02-16T14:10:22;97663.69;;;10.18;49.55
44001;BME280;29660;42.892;24.710;2024-02-16T14:15:44;97671.94;;;10.06;50.20
44001;BME280;29660;42.892;24.710;2024-02-16T14:21:06;97547.25;;;9.37;50.28
44001;BME280;29660;42.892;24.710;2024-02-16T14:26:28;97544.59;;;9.42;50.67
44001;BME280;29660;42.892;24.710;2024-02-16T14:31:51;97641.56;;;9.87;51.05
44001;BME280;29660;42.892;24.710;2024-02-16T14:37:13;97664.75;;;9.92;51.15
44001;BME280;29660;42.892;24.710;2024-02-16T14:42:35;97630.88;;;9.56;51.20
44001;BME280;29660;42.892;24.710;2024-02-16T14:47:58;97562.09;;;8.92;52.22
44001;BME280;29660;42.892;24.710;2024-02-16T14:53:21;97660.66;;;9.38;53.47
44001;BME280;29660;42.892;24.710;2024-02-16T14:58:43;97690.72;;;9.33;52.73
44001;BME280;29660;42.892;24.710;2024-02-16T15:04:06;97687.22;;;9.18;53.88
44001;BME280;29660;42.892;24.710;2024-02-16T15:09:28;97675.78;;;9.17;54.11
44001;BME280;29660;42.892;24.710;2024-02-16T15:14:51;97686.94;;;9.19;55.42
44001;BME280;29660;42.892;24.710;2024-02-16T15:20:13;97561.25;;;8.29;56.51
44001;BME280;29660;42.892;24.710;2024-02-16T15:25:35;97567.59;;;8.23;57.49
44001;BME280;29660;42.892;24.710;2024-02-16T15:30:58;97646.81;;;8.68;58.21
44001;BME280;29660;42.892;24.710;2024-02-16T15:36:20;97664.38;;;8.69;59.49
44001;BME280;29660;42.892;24.710;2024-02-16T15:41:42;97706.97;;;8.79;60.29
44001;BME280;29660;42.892;24.710;2024-02-16T15:47:04;97713.34;;;8.73;61.72
44001;BME280;29660;42.892;24.710;2024-02-16T15:52:27;97723.09;;;8.63;64.44
44001;BME280;29660;42.892;24.710;2024-02-16T15:57:49;97728.28;;;8.42;70.37
44001;BME280;29660;42.892;24.710;2024-02-16T16:03:11;97722.97;;;8.15;74.28
44001;BME280;29660;42.892;24.710;2024-02-16T16:08:33;97735.81;;;7.96;76.73
44001;BME280;29660;42.892;24.710;2024-02-16T16:13:55;97723.91;;;7.72;80.34
44001;BME280;29660;42.892;24.710;2024-02-16T16:19:17;97697.47;;;7.33;81.00
44001;BME280;29660;42.892;24.710;2024-02-16T16:24:39;97615.94;;;6.57;82.63
44001;BME280;29660;42.892;24.710;2024-02-16T16:30:05;97793.38;;;7.42;83.95
44001;BME280;29660;42.892;24.710;2024-02-16T16:35:27;97757.56;;;7.22;86.69
44001;BME280;29660;42.892;24.710;2024-02-16T16:40:50;97787.84;;;7.04;88.40
44001;BME280;29660;42.892;24.710;2024-02-16T16:46:12;97780.31;;;6.96;89.88
44001;BME280;29660;42.892;24.710;2024-02-16T16:51:34;97781.75;;;6.87;91.48
44001;BME280;29660;42.892;24.710;2024-02-16T16:56:56;97657.22;;;5.98;90.82
44001;BME280;29660;42.892;24.710;2024-02-16T17:02:18;97643.44;;;5.67;92.81
44001;BME280;29660;42.892;24.710;2024-02-16T17:07:45;97793.34;;;6.47;93.88
44001;BME280;29660;42.892;24.710;2024-02-16T17:13:09;97778.63;;;6.23;95.29
44001;BME280;29660;42.892;24.710;2024-02-16T17:18:31;97685.09;;;5.43;97.06
44001;BME280;29660;42.892;24.710;2024-02-16T17:23:57;97416.59;;;3.64;97.16
44001;BME280;29660;42.892;24.710;2024-02-16T17:29:19;97806.22;;;6.10;97.24
44001;BME280;29660;42.892;24.710;2024-02-16T17:34:41;97789.03;;;5.84;98.76
44001;BME280;29660;42.892;24.710;2024-02-16T17:40:04;97822.06;;;5.81;100.00
44001;BME280;29660;42.892;24.710;2024-02-16T17:45:26;97811.78;;;5.56;100.00
44001;BME280;29660;42.892;24.710;2024-02-16T17:50:48;97833.19;;;5.55;100.00
44001;BME280;29660;42.892;24.710;2024-02-16T17:56:11;97838.50;;;5.43;100.00
44001;BME280;29660;42.892;24.710;2024-02-16T18:01:33;97804.63;;;4.93;100.00
44001;BME280;29660;42.892;24.710;2024-02-16T18:06:55;97825.88;;;4.86;100.00
44001;BME280;29660;42.892;24.710;2024-02-16T18:12:18;97727.16;;;4.10;100.00
44001;BME280;29660;42.892;24.710;2024-02-16T18:17:40;97743.00;;;4.10;100.00
44001;BME280;29660;42.892;24.710;2024-02-16T18:23:03;97855.38;;;4.48;100.00
44001;BME280;29660;42.892;24.710;2024-02-16T18:28:25;97804.78;;;3.91;100.00
44001;BME280;29660;42.892;24.710;2024-02-16T18:33:51;97864.88;;;4.07;100.00
44001;BME280;29660;42.892;24.710;2024-02-16T18:39:13;97766.88;;;3.25;100.00
44001;BME280;29660;42.892;24.710;2024-02-16T18:44:35;97879.34;;;3.86;100.00
44001;BME280;29660;42.892;24.710;2024-02-16T18:49:58;97882.44;;;3.83;100.00
44001;BME280;29660;42.892;24.710;2024-02-16T18:55:20;97877.81;;;3.79;100.00
44001;BME280;29660;42.892;24.710;2024-02-16T19:00:44;97869.91;;;3.60;100.00
44001;BME280;29660;42.892;24.710;2024-02-16T19:06:08;97889.56;;;3.46;100.00
44001;BME280;29660;42.892;24.710;2024-02-16T19:11:30;97903.81;;;3.38;100.00
44001;BME280;29660;42.892;24.710;2024-02-16T19:16:53;97878.84;;;3.23;100.00
44001;BME280;29660;42.892;24.710;2024-02-16T19:22:17;97818.94;;;2.86;100.00
44001;BME280;29660;42.892;24.710;2024-02-16T19:27:39;97851.47;;;2.99;100.00
44001;BME280;29660;42.892;24.710;2024-02-16T19:33:02;97885.63;;;3.12;100.00
44001;BME280;29660;42.892;24.710;2024-02-16T19:38:25;97885.13;;;2.97;100.00
44001;BME280;29660;42.892;24.710;2024-02-16T19:43:47;97810.50;;;2.28;100.00
44001;BME280;29660;42.892;24.710;2024-02-16T19:49:09;97818.00;;;2.31;100.00
44001;BME280;29660;42.892;24.710;2024-02-16T19:54:32;97893.66;;;2.67;100.00
44001;BME280;29660;42.892;24.710;2024-02-16T19:59:54;97582.53;;;0.77;100.00
44001;BME280;29660;42.892;24.710;2024-02-16T20:05:17;97856.41;;;2.38;100.00
44001;BME280;29660;42.892;24.710;2024-02-16T20:10:41;97884.72;;;2.43;100.00
44001;BME280;29660;42.892;24.710;2024-02-16T20:16:03;97880.31;;;2.37;100.00
44001;BME280;29660;42.892;24.710;2024-02-16T20:21:26;97891.69;;;2.31;100.00
44001;BME280;29660;42.892;24.710;2024-02-16T20:26:49;97887.28;;;2.25;100.00
44001;BME280;29660;42.892;24.710;2024-02-16T20:32:11;97870.09;;;2.15;100.00
44001;BME280;29660;42.892;24.710;2024-02-16T20:37:33;97757.59;;;1.41;100.00
44001;BME280;29660;42.892;24.710;2024-02-16T20:42:55;97777.00;;;1.46;100.00
44001;BME280;29660;42.892;24.710;2024-02-16T20:48:21;97840.72;;;1.87;100.00
44001;BME280;29660;42.892;24.710;2024-02-16T20:53:43;97886.13;;;2.07;100.00
44001;BME280;29660;42.892;24.710;2024-02-16T20:59:05;97877.72;;;1.92;100.00
44001;BME280;29660;42.892;24.710;2024-02-16T21:04:34;97809.53;;;1.52;100.00
44001;BME280;29660;42.892;24.710;2024-02-16T21:09:56;97900.34;;;2.00;100.00
44001;BME280;29660;42.892;24.710;2024-02-16T21:15:19;97903.19;;;1.98;100.00
44001;BME280;29660;42.892;24.710;2024-02-16T21:20:41;97900.19;;;1.88;100.00
44001;BME280;29660;42.892;24.710;2024-02-16T21:26:04;97908.88;;;1.88;100.00
44001;BME280;29660;42.892;24.710;2024-02-16T21:31:26;97919.84;;;1.79;100.00
44001;BME280;29660;42.892;24.710;2024-02-16T21:36:48;97910.16;;;1.72;100.00
44001;BME280;29660;42.892;24.710;2024-02-16T21:42:15;97913.81;;;1.65;100.00
44001;BME280;29660;42.892;24.710;2024-02-16T21:47:40;97915.06;;;1.62;100.00
44001;BME280;29660;42.892;24.710;2024-02-16T21:53:02;97840.19;;;0.93;100.00
44001;BME280;29660;42.892;24.710;2024-02-16T21:58:24;97920.94;;;1.51;100.00
44001;BME280;29660;42.892;24.710;2024-02-16T22:03:47;97928.44;;;1.47;100.00
44001;BME280;29660;42.892;24.710;2024-02-16T22:09:12;97926.03;;;1.46;100.00
44001;BME280;29660;42.892;24.710;2024-02-16T22:14:35;97763.50;;;0.38;100.00
44001;BME280;29660;42.892;24.710;2024-02-16T22:19:57;97857.38;;;0.96;100.00
44001;BME280;29660;42.892;24.710;2024-02-16T22:25:19;97929.06;;;1.36;100.00
44001;BME280;29660;42.892;24.710;2024-02-16T22:30:41;97928.88;;;1.31;100.00
44001;BME280;29660;42.892;24.710;2024-02-16T22:36:04;97952.31;;;1.33;100.00
44001;BME280;29660;42.892;24.710;2024-02-16T22:41:26;97927.44;;;1.29;100.00
44001;BME280;29660;42.892;24.710;2024-02-16T22:46:48;97925.88;;;1.14;100.00
44001;BME280;29660;42.892;24.710;2024-02-16T22:52:11;97926.66;;;1.08;100.00
44001;BME280;29660;42.892;24.710;2024-02-16T22:57:33;97889.69;;;0.90;100.00
44001;BME280;29660;42.892;24.710;2024-02-16T23:02:55;97919.19;;;1.05;100.00
44001;BME280;29660;42.892;24.710;2024-02-16T23:08:18;97867.66;;;0.38;100.00
44001;BME280;29660;42.892;24.710;2024-02-16T23:13:41;97930.09;;;0.95;100.00
44001;BME280;29660;42.892;24.710;2024-02-16T23:19:03;97912.94;;;1.00;100.00
44001;BME280;29660;42.892;24.710;2024-02-16T23:24:25;97918.19;;;0.93;100.00
44001;BME280;29660;42.892;24.710;2024-02-16T23:29:47;97886.88;;;0.65;100.00
44001;BME280;29660;42.892;24.710;2024-02-16T23:35:10;97920.81;;;0.80;100.00
44001;BME280;29660;42.892;24.710;2024-02-16T23:40:32;97916.75;;;0.70;100.00
44001;BME280;29660;42.892;24.710;2024-02-16T23:45:54;97843.03;;;0.26;100.00
44001;BME280;29660;42.892;24.710;2024-02-16T23:51:22;97920.81;;;0.80;100.00
44001;BME280;29660;42.892;24.710;2024-02-16T23:56:44;97934.13;;;0.78;100.00
